Аэропорт
Астана (UACC)

 UACC / TSE
ЗЦ Центральная Азия
Астана (UACC)
Астана (UACC)
 51.02220, 71.46690  / 1165 ft

 TAF UACC 042300Z 0500/0524 36006MPS CAVOK TX19/0509Z TN07/0501Z TEMPO 0505/0515 34007G12MPS BECMG 0515/0517 01004MPS TEMPO 0515/0518 03007MPS TEMPO 0520/0524 VRB02MPS
UACC_aip_1708
показать схемы
Название сценария Тип сценария Flight Simulator 9 Flight Simulator X Prepar3D v2 Prepar3D v3 Prepar3D v4 xPlane
Лёгкий сценарий аэропорта г. Астаны бесплатный


2020 © VATRUS division (Privacy Policy)